createdAt,value
2022-08-03T00:07:29.332Z,87
2022-08-03T00:17:29.797Z,88
2022-08-03T00:27:30.484Z,88
2022-08-03T00:47:31.593Z,90
2022-08-03T00:57:32.212Z,89
2022-08-03T01:07:33.194Z,90
2022-08-03T01:17:33.307Z,90
2022-08-03T01:27:33.897Z,91
2022-08-03T01:47:34.911Z,91
2022-08-03T01:57:35.107Z,91
2022-08-03T02:07:35.893Z,92
2022-08-03T02:17:38.893Z,92
2022-08-03T02:37:36.711Z,93
2022-08-03T02:47:53.746Z,93
2022-08-03T02:57:38.717Z,93
2022-08-03T03:07:45.440Z,93
2022-08-03T03:27:40.078Z,94
2022-08-03T03:37:40.866Z,94
2022-08-03T03:57:41.641Z,95
2022-08-03T04:07:42.552Z,95
2022-08-03T04:17:43.331Z,95
2022-08-03T04:37:44.568Z,95
2022-08-03T04:47:44.706Z,96
2022-08-03T04:57:45.728Z,96
2022-08-03T05:17:46.997Z,95
2022-08-03T05:37:54.607Z,93
2022-08-03T05:47:48.231Z,89
2022-08-03T06:17:49.660Z,83
2022-08-03T06:27:50.591Z,83
2022-08-03T06:37:51.372Z,80
2022-08-03T06:47:52.180Z,77
2022-08-03T06:57:52.482Z,77
2022-08-03T07:07:53.388Z,75
2022-08-03T07:27:55.185Z,72
2022-08-03T07:57:56.689Z,68
2022-08-03T08:07:57.620Z,68
2022-08-03T08:17:58.066Z,67
2022-08-03T08:28:21.914Z,68
2022-08-03T08:37:58.737Z,65
2022-08-03T08:57:59.588Z,63
2022-08-03T09:07:59.914Z,60
2022-08-03T09:18:00.044Z,60
2022-08-03T09:28:01.109Z,58
2022-08-03T09:38:06.056Z,57
2022-08-03T09:48:03.017Z,56
2022-08-03T09:58:03.758Z,56
2022-08-03T10:08:03.853Z,54
2022-08-03T10:18:04.028Z,54
2022-08-03T10:28:04.844Z,54
2022-08-03T10:38:05.219Z,54
2022-08-03T10:48:05.371Z,53
2022-08-03T10:58:10.824Z,52
2022-08-03T11:08:06.969Z,50
2022-08-03T11:18:07.242Z,49
2022-08-03T11:28:07.445Z,48
2022-08-03T11:48:08.989Z,48
2022-08-03T11:59:00.488Z,48
2022-08-03T12:08:09.485Z,48
2022-08-03T12:18:11.016Z,48
2022-08-03T12:28:30.403Z,46
2022-08-03T12:38:11.332Z,46
2022-08-03T12:48:11.715Z,47
2022-08-03T12:58:15.823Z,45
2022-08-03T13:08:12.848Z,44
2022-08-03T13:18:13.348Z,46
2022-08-03T13:28:14.386Z,44
2022-08-03T13:38:15.310Z,45
2022-08-03T13:48:15.278Z,45
2022-08-03T13:58:16.396Z,44
2022-08-03T14:08:16.990Z,44
2022-08-03T14:18:28.016Z,45
2022-08-03T14:28:17.807Z,43
2022-08-03T14:38:18.436Z,42
2022-08-03T14:50:10.271Z,43
2022-08-03T14:58:20.856Z,43
2022-08-03T15:08:20.520Z,42
2022-08-03T15:18:20.903Z,42
2022-08-03T15:28:21.522Z,41
2022-08-03T15:48:22.175Z,40
2022-08-03T15:58:59.537Z,41
2022-08-03T16:08:23.199Z,41
2022-08-03T16:18:23.739Z,41
2022-08-03T16:28:24.644Z,41
2022-08-03T16:38:25.572Z,41
2022-08-03T16:48:26.065Z,42
2022-08-03T16:58:35.002Z,43
2022-08-03T17:08:27.433Z,43
2022-08-03T17:28:42.840Z,45
2022-08-03T17:38:31.963Z,45
2022-08-03T17:48:29.765Z,46
2022-08-03T17:58:30.324Z,46
2022-08-03T18:08:31.354Z,47
2022-08-03T18:18:32.774Z,48
2022-08-03T18:38:33.342Z,50
2022-08-03T18:58:35.155Z,53
2022-08-03T19:08:35.309Z,53
2022-08-03T19:18:36.214Z,54
2022-08-03T19:28:36.771Z,56
2022-08-03T19:38:37.519Z,57
2022-08-03T19:48:38.343Z,58
2022-08-03T19:58:39.002Z,60
2022-08-03T20:08:39.135Z,61
2022-08-03T20:18:39.649Z,63
2022-08-03T20:28:49.915Z,63
2022-08-03T20:38:43.881Z,65
2022-08-03T20:48:42.284Z,66
2022-08-03T20:58:42.576Z,68
2022-08-03T21:18:43.817Z,70
2022-08-03T21:28:44.454Z,70
2022-08-03T21:38:47.430Z,72
2022-08-03T21:48:45.574Z,73
2022-08-03T21:58:45.981Z,74
2022-08-03T22:08:46.237Z,74
2022-08-03T22:18:46.474Z,75
2022-08-03T22:28:47.546Z,77
2022-08-03T22:38:48.373Z,78
2022-08-03T22:48:49.448Z,78
2022-08-03T22:58:50.002Z,79
2022-08-03T23:08:50.122Z,79
2022-08-03T23:28:51.237Z,79
2022-08-03T23:38:51.665Z,80
2022-08-03T23:58:52.736Z,80
